sensor_id;sensor_type;location;lat;lon;timestamp;P1;durP1;ratioP1;P2;durP2;ratioP2
63012;SDS011;62113;45.624;11.700;2023-04-25T00:00:06;6.40;;;2.90;;
63012;SDS011;62113;45.624;11.700;2023-04-25T00:02:33;3.33;;;2.97;;
63012;SDS011;62113;45.624;11.700;2023-04-25T00:05:00;3.83;;;2.83;;
63012;SDS011;62113;45.624;11.700;2023-04-25T00:09:52;3.55;;;2.50;;
63012;SDS011;62113;45.624;11.700;2023-04-25T00:12:18;4.30;;;2.90;;
63012;SDS011;62113;45.624;11.700;2023-04-25T00:14:43;5.20;;;3.30;;
63012;SDS011;62113;45.624;11.700;2023-04-25T00:17:10;3.25;;;2.90;;
63012;SDS011;62113;45.624;11.700;2023-04-25T00:19:36;4.00;;;3.03;;
63012;SDS011;62113;45.624;11.700;2023-04-25T00:22:02;7.28;;;2.70;;
63012;SDS011;62113;45.624;11.700;2023-04-25T00:24:28;4.17;;;3.27;;
63012;SDS011;62113;45.624;11.700;2023-04-25T00:26:54;2.97;;;2.77;;
63012;SDS011;62113;45.624;11.700;2023-04-25T00:29:20;5.17;;;3.10;;
63012;SDS011;62113;45.624;11.700;2023-04-25T00:31:46;3.30;;;3.00;;
63012;SDS011;62113;45.624;11.700;2023-04-25T00:34:11;6.27;;;3.13;;
63012;SDS011;62113;45.624;11.700;2023-04-25T00:36:37;4.73;;;2.87;;
63012;SDS011;62113;45.624;11.700;2023-04-25T00:39:03;4.40;;;2.70;;
63012;SDS011;62113;45.624;11.700;2023-04-25T00:41:29;6.35;;;3.05;;
63012;SDS011;62113;45.624;11.700;2023-04-25T00:43:55;4.83;;;2.97;;
63012;SDS011;62113;45.624;11.700;2023-04-25T00:46:21;3.67;;;3.33;;
63012;SDS011;62113;45.624;11.700;2023-04-25T00:48:47;4.67;;;2.83;;
63012;SDS011;62113;45.624;11.700;2023-04-25T00:51:16;3.77;;;3.07;;
63012;SDS011;62113;45.624;11.700;2023-04-25T00:53:45;3.22;;;2.92;;
63012;SDS011;62113;45.624;11.700;2023-04-25T00:56:12;5.28;;;3.40;;
63012;SDS011;62113;45.624;11.700;2023-04-25T00:58:38;3.33;;;2.93;;
63012;SDS011;62113;45.624;11.700;2023-04-25T01:01:06;3.28;;;2.92;;
63012;SDS011;62113;45.624;11.700;2023-04-25T01:03:33;4.68;;;2.78;;
63012;SDS011;62113;45.624;11.700;2023-04-25T01:06:00;3.20;;;2.90;;
63012;SDS011;62113;45.624;11.700;2023-04-25T01:08:27;3.17;;;2.88;;
63012;SDS011;62113;45.624;11.700;2023-04-25T01:10:53;3.10;;;2.87;;
63012;SDS011;62113;45.624;11.700;2023-04-25T01:13:18;3.63;;;2.73;;
63012;SDS011;62113;45.624;11.700;2023-04-25T01:15:44;8.73;;;3.40;;
63012;SDS011;62113;45.624;11.700;2023-04-25T01:18:10;4.07;;;2.78;;
63012;SDS011;62113;45.624;11.700;2023-04-25T01:20:37;3.15;;;2.80;;
63012;SDS011;62113;45.624;11.700;2023-04-25T01:23:05;8.57;;;2.88;;
63012;SDS011;62113;45.624;11.700;2023-04-25T01:25:31;3.10;;;2.80;;
63012;SDS011;62113;45.624;11.700;2023-04-25T01:27:57;3.00;;;2.60;;
63012;SDS011;62113;45.624;11.700;2023-04-25T01:30:23;3.20;;;2.95;;
63012;SDS011;62113;45.624;11.700;2023-04-25T01:32:57;2.95;;;2.72;;
63012;SDS011;62113;45.624;11.700;2023-04-25T01:35:23;3.88;;;3.03;;
63012;SDS011;62113;45.624;11.700;2023-04-25T01:37:50;5.43;;;2.90;;
63012;SDS011;62113;45.624;11.700;2023-04-25T01:40:16;4.28;;;2.90;;
63012;SDS011;62113;45.624;11.700;2023-04-25T01:42:44;3.80;;;3.42;;
63012;SDS011;62113;45.624;11.700;2023-04-25T01:45:10;7.82;;;2.97;;
63012;SDS011;62113;45.624;11.700;2023-04-25T01:47:37;3.40;;;3.10;;
63012;SDS011;62113;45.624;11.700;2023-04-25T01:50:05;3.22;;;3.03;;
63012;SDS011;62113;45.624;11.700;2023-04-25T01:52:31;3.47;;;2.65;;
63012;SDS011;62113;45.624;11.700;2023-04-25T01:54:57;2.53;;;2.33;;
63012;SDS011;62113;45.624;11.700;2023-04-25T01:57:26;3.13;;;2.30;;
63012;SDS011;62113;45.624;11.700;2023-04-25T01:59:53;2.70;;;2.50;;
63012;SDS011;62113;45.624;11.700;2023-04-25T02:02:24;3.83;;;2.60;;
63012;SDS011;62113;45.624;11.700;2023-04-25T02:04:50;4.57;;;2.60;;
63012;SDS011;62113;45.624;11.700;2023-04-25T02:07:15;2.25;;;2.15;;
63012;SDS011;62113;45.624;11.700;2023-04-25T02:09:41;2.33;;;2.13;;
63012;SDS011;62113;45.624;11.700;2023-04-25T02:12:07;2.77;;;2.57;;
63012;SDS011;62113;45.624;11.700;2023-04-25T02:14:34;3.45;;;2.15;;
63012;SDS011;62113;45.624;11.700;2023-04-25T02:17:00;7.63;;;2.13;;
63012;SDS011;62113;45.624;11.700;2023-04-25T02:19:25;10.63;;;1.97;;
63012;SDS011;62113;45.624;11.700;2023-04-25T02:21:51;2.23;;;2.03;;
63012;SDS011;62113;45.624;11.700;2023-04-25T02:24:17;2.17;;;1.97;;
63012;SDS011;62113;45.624;11.700;2023-04-25T02:26:42;2.70;;;2.10;;
63012;SDS011;62113;45.624;11.700;2023-04-25T02:29:09;6.80;;;2.17;;
63012;SDS011;62113;45.624;11.700;2023-04-25T02:31:35;2.03;;;1.87;;
63012;SDS011;62113;45.624;11.700;2023-04-25T02:34:00;5.17;;;1.73;;
63012;SDS011;62113;45.624;11.700;2023-04-25T02:36:26;1.60;;;1.50;;
63012;SDS011;62113;45.624;11.700;2023-04-25T02:38:51;1.70;;;1.60;;
63012;SDS011;62113;45.624;11.700;2023-04-25T02:41:17;9.50;;;2.23;;
63012;SDS011;62113;45.624;11.700;2023-04-25T02:43:42;2.60;;;1.73;;
63012;SDS011;62113;45.624;11.700;2023-04-25T02:46:08;1.97;;;1.87;;
63012;SDS011;62113;45.624;11.700;2023-04-25T02:48:34;1.88;;;1.77;;
63012;SDS011;62113;45.624;11.700;2023-04-25T02:51:00;2.45;;;1.63;;
63012;SDS011;62113;45.624;11.700;2023-04-25T02:53:25;6.65;;;2.00;;
63012;SDS011;62113;45.624;11.700;2023-04-25T02:55:51;1.70;;;1.60;;
63012;SDS011;62113;45.624;11.700;2023-04-25T02:58:17;2.03;;;1.83;;
63012;SDS011;62113;45.624;11.700;2023-04-25T03:00:43;1.97;;;1.87;;
63012;SDS011;62113;45.624;11.700;2023-04-25T03:03:09;3.95;;;2.20;;
63012;SDS011;62113;45.624;11.700;2023-04-25T03:05:34;1.50;;;1.40;;
63012;SDS011;62113;45.624;11.700;2023-04-25T03:08:00;1.93;;;1.83;;
63012;SDS011;62113;45.624;11.700;2023-04-25T03:10:25;1.95;;;1.85;;
63012;SDS011;62113;45.624;11.700;2023-04-25T03:12:51;6.23;;;2.50;;
63012;SDS011;62113;45.624;11.700;2023-04-25T03:15:17;4.05;;;2.88;;
63012;SDS011;62113;45.624;11.700;2023-04-25T03:17:43;3.05;;;2.70;;
63012;SDS011;62113;45.624;11.700;2023-04-25T03:20:09;3.50;;;3.20;;
63012;SDS011;62113;45.624;11.700;2023-04-25T03:22:35;4.15;;;3.22;;
63012;SDS011;62113;45.624;11.700;2023-04-25T03:25:01;4.87;;;3.20;;
63012;SDS011;62113;45.624;11.700;2023-04-25T03:27:26;5.07;;;3.17;;
63012;SDS011;62113;45.624;11.700;2023-04-25T03:29:52;2.67;;;2.28;;
63012;SDS011;62113;45.624;11.700;2023-04-25T03:32:18;1.93;;;1.70;;
63012;SDS011;62113;45.624;11.700;2023-04-25T03:34:43;2.17;;;2.00;;
63012;SDS011;62113;45.624;11.700;2023-04-25T03:37:09;6.03;;;1.70;;
63012;SDS011;62113;45.624;11.700;2023-04-25T03:39:34;2.23;;;1.80;;
63012;SDS011;62113;45.624;11.700;2023-04-25T03:42:00;1.92;;;1.80;;
63012;SDS011;62113;45.624;11.700;2023-04-25T03:44:27;2.10;;;2.00;;
63012;SDS011;62113;45.624;11.700;2023-04-25T03:46:53;6.07;;;1.75;;
63012;SDS011;62113;45.624;11.700;2023-04-25T03:49:19;4.13;;;2.30;;
63012;SDS011;62113;45.624;11.700;2023-04-25T03:51:44;2.75;;;2.05;;
63012;SDS011;62113;45.624;11.700;2023-04-25T03:54:10;2.40;;;2.20;;
63012;SDS011;62113;45.624;11.700;2023-04-25T03:56:35;1.83;;;1.73;;
63012;SDS011;62113;45.624;11.700;2023-04-25T03:59:01;3.17;;;2.30;;
63012;SDS011;62113;45.624;11.700;2023-04-25T04:01:27;1.98;;;1.88;;
63012;SDS011;62113;45.624;11.700;2023-04-25T04:03:52;2.17;;;2.00;;
63012;SDS011;62113;45.624;11.700;2023-04-25T04:06:18;1.83;;;1.73;;
63012;SDS011;62113;45.624;11.700;2023-04-25T04:08:45;2.60;;;2.15;;
63012;SDS011;62113;45.624;11.700;2023-04-25T04:11:11;1.80;;;1.70;;
63012;SDS011;62113;45.624;11.700;2023-04-25T04:13:37;2.00;;;1.80;;
63012;SDS011;62113;45.624;11.700;2023-04-25T04:16:02;4.22;;;1.90;;
63012;SDS011;62113;45.624;11.700;2023-04-25T04:18:29;2.40;;;1.67;;
63012;SDS011;62113;45.624;11.700;2023-04-25T04:20:55;2.67;;;1.85;;
63012;SDS011;62113;45.624;11.700;2023-04-25T04:23:23;2.22;;;2.03;;
63012;SDS011;62113;45.624;11.700;2023-04-25T04:25:48;2.47;;;2.28;;
63012;SDS011;62113;45.624;11.700;2023-04-25T04:28:14;2.03;;;1.88;;
63012;SDS011;62113;45.624;11.700;2023-04-25T04:30:41;9.40;;;2.30;;
63012;SDS011;62113;45.624;11.700;2023-04-25T04:33:07;2.00;;;1.77;;
63012;SDS011;62113;45.624;11.700;2023-04-25T04:35:33;2.30;;;2.15;;
63012;SDS011;62113;45.624;11.700;2023-04-25T04:37:59;5.55;;;2.38;;
63012;SDS011;62113;45.624;11.700;2023-04-25T04:40:25;1.95;;;1.85;;
63012;SDS011;62113;45.624;11.700;2023-04-25T04:42:51;2.33;;;2.13;;
63012;SDS011;62113;45.624;11.700;2023-04-25T04:45:18;5.82;;;2.25;;
63012;SDS011;62113;45.624;11.700;2023-04-25T04:47:43;4.97;;;2.17;;
63012;SDS011;62113;45.624;11.700;2023-04-25T04:50:10;2.40;;;2.20;;
63012;SDS011;62113;45.624;11.700;2023-04-25T04:52:36;3.80;;;2.70;;
63012;SDS011;62113;45.624;11.700;2023-04-25T04:55:03;4.47;;;2.70;;
63012;SDS011;62113;45.624;11.700;2023-04-25T04:57:30;5.70;;;2.83;;
63012;SDS011;62113;45.624;11.700;2023-04-25T04:59:58;9.43;;;5.93;;
63012;SDS011;62113;45.624;11.700;2023-04-25T05:02:24;3.60;;;3.30;;
63012;SDS011;62113;45.624;11.700;2023-04-25T05:04:50;8.13;;;3.25;;
63012;SDS011;62113;45.624;11.700;2023-04-25T05:07:16;3.45;;;2.90;;
63012;SDS011;62113;45.624;11.700;2023-04-25T05:09:42;5.72;;;2.40;;
63012;SDS011;62113;45.624;11.700;2023-04-25T05:12:08;3.60;;;2.60;;
63012;SDS011;62113;45.624;11.700;2023-04-25T05:14:34;3.07;;;2.43;;
63012;SDS011;62113;45.624;11.700;2023-04-25T05:17:00;4.50;;;2.73;;
63012;SDS011;62113;45.624;11.700;2023-04-25T05:19:25;3.50;;;3.20;;
63012;SDS011;62113;45.624;11.700;2023-04-25T05:21:51;4.87;;;3.30;;
63012;SDS011;62113;45.624;11.700;2023-04-25T05:24:17;3.33;;;3.03;;
63012;SDS011;62113;45.624;11.700;2023-04-25T05:26:43;3.47;;;3.10;;
63012;SDS011;62113;45.624;11.700;2023-04-25T05:29:08;6.28;;;3.20;;
63012;SDS011;62113;45.624;11.700;2023-04-25T05:31:35;7.87;;;3.03;;
63012;SDS011;62113;45.624;11.700;2023-04-25T05:34:01;2.63;;;2.42;;
63012;SDS011;62113;45.624;11.700;2023-04-25T05:36:27;5.10;;;2.63;;
63012;SDS011;62113;45.624;11.700;2023-04-25T05:38:52;3.03;;;2.30;;
63012;SDS011;62113;45.624;11.700;2023-04-25T05:41:18;2.30;;;2.10;;
63012;SDS011;62113;45.624;11.700;2023-04-25T05:43:44;3.72;;;2.33;;
63012;SDS011;62113;45.624;11.700;2023-04-25T05:46:12;4.18;;;2.60;;
63012;SDS011;62113;45.624;11.700;2023-04-25T05:48:38;3.17;;;2.40;;
63012;SDS011;62113;45.624;11.700;2023-04-25T05:51:04;4.63;;;2.53;;
63012;SDS011;62113;45.624;11.700;2023-04-25T05:53:29;2.92;;;2.58;;
63012;SDS011;62113;45.624;11.700;2023-04-25T05:55:55;3.20;;;2.83;;
63012;SDS011;62113;45.624;11.700;2023-04-25T05:58:21;5.37;;;2.93;;
63012;SDS011;62113;45.624;11.700;2023-04-25T06:00:47;4.13;;;2.83;;
63012;SDS011;62113;45.624;11.700;2023-04-25T06:03:12;4.33;;;2.37;;
63012;SDS011;62113;45.624;11.700;2023-04-25T06:05:41;3.38;;;2.45;;
63012;SDS011;62113;45.624;11.700;2023-04-25T06:08:07;2.55;;;2.35;;
63012;SDS011;62113;45.624;11.700;2023-04-25T06:10:33;3.70;;;2.53;;
63012;SDS011;62113;45.624;11.700;2023-04-25T06:12:59;6.03;;;2.30;;
63012;SDS011;62113;45.624;11.700;2023-04-25T06:15:24;9.07;;;2.50;;
63012;SDS011;62113;45.624;11.700;2023-04-25T06:17:50;3.47;;;2.10;;
63012;SDS011;62113;45.624;11.700;2023-04-25T06:20:15;4.47;;;2.28;;
63012;SDS011;62113;45.624;11.700;2023-04-25T06:22:41;3.53;;;2.00;;
63012;SDS011;62113;45.624;11.700;2023-04-25T06:25:07;2.55;;;1.88;;
63012;SDS011;62113;45.624;11.700;2023-04-25T06:27:35;2.20;;;2.00;;
63012;SDS011;62113;45.624;11.700;2023-04-25T06:30:01;3.22;;;2.10;;
63012;SDS011;62113;45.624;11.700;2023-04-25T06:32:26;3.38;;;1.83;;
63012;SDS011;62113;45.624;11.700;2023-04-25T06:34:54;2.20;;;1.85;;
63012;SDS011;62113;45.624;11.700;2023-04-25T06:37:20;2.78;;;1.88;;
63012;SDS011;62113;45.624;11.700;2023-04-25T06:39:46;1.80;;;1.70;;
63012;SDS011;62113;45.624;11.700;2023-04-25T06:42:11;1.77;;;1.50;;
63012;SDS011;62113;45.624;11.700;2023-04-25T06:44:37;5.32;;;2.08;;
63012;SDS011;62113;45.624;11.700;2023-04-25T06:47:02;1.37;;;1.30;;
63012;SDS011;62113;45.624;11.700;2023-04-25T06:49:28;1.80;;;1.40;;
63012;SDS011;62113;45.624;11.700;2023-04-25T06:51:53;3.67;;;1.60;;
63012;SDS011;62113;45.624;11.700;2023-04-25T06:54:19;1.80;;;1.50;;
63012;SDS011;62113;45.624;11.700;2023-04-25T06:56:45;1.57;;;1.30;;
63012;SDS011;62113;45.624;11.700;2023-04-25T06:59:11;1.63;;;1.50;;
63012;SDS011;62113;45.624;11.700;2023-04-25T07:01:36;1.40;;;1.30;;
63012;SDS011;62113;45.624;11.700;2023-04-25T07:04:02;1.52;;;1.33;;
63012;SDS011;62113;45.624;11.700;2023-04-25T07:06:28;2.17;;;1.50;;
63012;SDS011;62113;45.624;11.700;2023-04-25T07:08:53;1.70;;;1.50;;
63012;SDS011;62113;45.624;11.700;2023-04-25T07:11:20;1.67;;;1.58;;
63012;SDS011;62113;45.624;11.700;2023-04-25T07:13:46;1.85;;;1.40;;
63012;SDS011;62113;45.624;11.700;2023-04-25T07:16:11;2.00;;;1.43;;
63012;SDS011;62113;45.624;11.700;2023-04-25T07:18:37;3.93;;;1.80;;
63012;SDS011;62113;45.624;11.700;2023-04-25T07:21:02;3.07;;;2.00;;
63012;SDS011;62113;45.624;11.700;2023-04-25T07:23:28;2.63;;;2.10;;
63012;SDS011;62113;45.624;11.700;2023-04-25T07:25:55;5.93;;;2.00;;
63012;SDS011;62113;45.624;11.700;2023-04-25T07:28:21;3.07;;;2.30;;
63012;SDS011;62113;45.624;11.700;2023-04-25T07:30:46;4.82;;;2.47;;
63012;SDS011;62113;45.624;11.700;2023-04-25T07:33:12;4.28;;;1.75;;
63012;SDS011;62113;45.624;11.700;2023-04-25T07:35:37;1.87;;;1.70;;
63012;SDS011;62113;45.624;11.700;2023-04-25T07:38:03;2.58;;;2.05;;
63012;SDS011;62113;45.624;11.700;2023-04-25T07:40:29;3.93;;;2.47;;
63012;SDS011;62113;45.624;11.700;2023-04-25T07:42:55;9.53;;;2.17;;
63012;SDS011;62113;45.624;11.700;2023-04-25T07:45:20;4.85;;;1.75;;
63012;SDS011;62113;45.624;11.700;2023-04-25T07:47:46;4.38;;;1.65;;
63012;SDS011;62113;45.624;11.700;2023-04-25T07:50:11;5.35;;;2.00;;
63012;SDS011;62113;45.624;11.700;2023-04-25T07:52:37;5.40;;;2.20;;
63012;SDS011;62113;45.624;11.700;2023-04-25T07:55:03;2.27;;;1.80;;
63012;SDS011;62113;45.624;11.700;2023-04-25T07:57:29;2.43;;;2.17;;
63012;SDS011;62113;45.624;11.700;2023-04-25T07:59:55;3.95;;;2.30;;
63012;SDS011;62113;45.624;11.700;2023-04-25T08:02:20;3.58;;;2.65;;
63012;SDS011;62113;45.624;11.700;2023-04-25T08:04:46;3.37;;;2.90;;
63012;SDS011;62113;45.624;11.700;2023-04-25T08:07:12;3.97;;;2.40;;
63012;SDS011;62113;45.624;11.700;2023-04-25T08:09:37;5.50;;;2.50;;
63012;SDS011;62113;45.624;11.700;2023-04-25T08:12:03;4.25;;;2.63;;
63012;SDS011;62113;45.624;11.700;2023-04-25T08:14:29;6.63;;;2.97;;
63012;SDS011;62113;45.624;11.700;2023-04-25T08:17:00;3.78;;;3.00;;
63012;SDS011;62113;45.624;11.700;2023-04-25T08:19:28;3.60;;;2.42;;
63012;SDS011;62113;45.624;11.700;2023-04-25T08:21:54;2.47;;;2.30;;
63012;SDS011;62113;45.624;11.700;2023-04-25T08:24:21;4.38;;;2.60;;
63012;SDS011;62113;45.624;11.700;2023-04-25T08:26:47;3.97;;;2.60;;
63012;SDS011;62113;45.624;11.700;2023-04-25T08:29:12;4.70;;;2.22;;
63012;SDS011;62113;45.624;11.700;2023-04-25T08:31:38;3.17;;;2.87;;
63012;SDS011;62113;45.624;11.700;2023-04-25T08:34:03;5.47;;;2.53;;
63012;SDS011;62113;45.624;11.700;2023-04-25T08:36:29;2.70;;;2.50;;
63012;SDS011;62113;45.624;11.700;2023-04-25T08:41:23;2.42;;;2.17;;
63012;SDS011;62113;45.624;11.700;2023-04-25T08:43:49;2.40;;;2.20;;
63012;SDS011;62113;45.624;11.700;2023-04-25T08:46:17;3.63;;;2.40;;
63012;SDS011;62113;45.624;11.700;2023-04-25T08:48:44;3.10;;;2.20;;
63012;SDS011;62113;45.624;11.700;2023-04-25T08:51:13;2.58;;;2.05;;
63012;SDS011;62113;45.624;11.700;2023-04-25T08:53:46;3.60;;;2.38;;
63012;SDS011;62113;45.624;11.700;2023-04-25T08:56:15;2.38;;;2.15;;
63012;SDS011;62113;45.624;11.700;2023-04-25T08:58:50;2.72;;;2.50;;
63012;SDS011;62113;45.624;11.700;2023-04-25T09:01:17;2.58;;;2.00;;
63012;SDS011;62113;45.624;11.700;2023-04-25T09:06:12;3.63;;;2.45;;
63012;SDS011;62113;45.624;11.700;2023-04-25T09:08:38;3.95;;;2.47;;
63012;SDS011;62113;45.624;11.700;2023-04-25T09:11:06;4.70;;;2.50;;
63012;SDS011;62113;45.624;11.700;2023-04-25T09:15:58;6.87;;;1.70;;
63012;SDS011;62113;45.624;11.700;2023-04-25T09:23:16;4.57;;;1.30;;
63012;SDS011;62113;45.624;11.700;2023-04-25T09:25:45;1.98;;;1.75;;
63012;SDS011;62113;45.624;11.700;2023-04-25T09:28:13;1.90;;;1.75;;
63012;SDS011;62113;45.624;11.700;2023-04-25T09:30:38;2.23;;;2.00;;
63012;SDS011;62113;45.624;11.700;2023-04-25T09:33:05;1.90;;;1.33;;
63012;SDS011;62113;45.624;11.700;2023-04-25T09:35:38;1.60;;;1.50;;
63012;SDS011;62113;45.624;11.700;2023-04-25T09:38:12;1.48;;;1.38;;
63012;SDS011;62113;45.624;11.700;2023-04-25T09:40:40;1.15;;;1.15;;
63012;SDS011;62113;45.624;11.700;2023-04-25T09:43:30;1.98;;;1.50;;
63012;SDS011;62113;45.624;11.700;2023-04-25T09:45:55;1.40;;;1.30;;
63012;SDS011;62113;45.624;11.700;2023-04-25T09:48:25;1.30;;;1.20;;
63012;SDS011;62113;45.624;11.700;2023-04-25T09:53:35;2.35;;;1.20;;
63012;SDS011;62113;45.624;11.700;2023-04-25T09:56:03;1.20;;;1.10;;
63012;SDS011;62113;45.624;11.700;2023-04-25T09:58:31;0.98;;;0.98;;
63012;SDS011;62113;45.624;11.700;2023-04-25T10:01:00;1.23;;;1.20;;
63012;SDS011;62113;45.624;11.700;2023-04-25T10:03:29;1.35;;;1.20;;
63012;SDS011;62113;45.624;11.700;2023-04-25T10:05:57;1.52;;;1.40;;
63012;SDS011;62113;45.624;11.700;2023-04-25T10:08:25;1.05;;;1.02;;
63012;SDS011;62113;45.624;11.700;2023-04-25T10:10:57;1.20;;;1.20;;
63012;SDS011;62113;45.624;11.700;2023-04-25T10:13:25;1.60;;;1.50;;
63012;SDS011;62113;45.624;11.700;2023-04-25T10:15:51;2.75;;;1.45;;
63012;SDS011;62113;45.624;11.700;2023-04-25T10:23:13;1.33;;;1.23;;
63012;SDS011;62113;45.624;11.700;2023-04-25T10:25:40;1.30;;;1.27;;
63012;SDS011;62113;45.624;11.700;2023-04-25T10:28:07;1.55;;;1.45;;
63012;SDS011;62113;45.624;11.700;2023-04-25T10:30:32;1.40;;;1.30;;
63012;SDS011;62113;45.624;11.700;2023-04-25T10:32:58;1.40;;;1.27;;
63012;SDS011;62113;45.624;11.700;2023-04-25T10:35:25;2.75;;;1.27;;
63012;SDS011;62113;45.624;11.700;2023-04-25T10:38:05;1.13;;;1.13;;
63012;SDS011;62113;45.624;11.700;2023-04-25T10:40:35;1.30;;;1.30;;
63012;SDS011;62113;45.624;11.700;2023-04-25T10:48:53;1.17;;;1.08;;
63012;SDS011;62113;45.624;11.700;2023-04-25T10:51:21;1.60;;;1.50;;
63012;SDS011;62113;45.624;11.700;2023-04-25T10:56:20;1.40;;;1.30;;
63012;SDS011;62113;45.624;11.700;2023-04-25T10:58:47;0.93;;;0.93;;
63012;SDS011;62113;45.624;11.700;2023-04-25T11:01:21;0.90;;;0.90;;
63012;SDS011;62113;45.624;11.700;2023-04-25T11:03:56;1.20;;;1.10;;
63012;SDS011;62113;45.624;11.700;2023-04-25T11:06:23;1.50;;;1.40;;
63012;SDS011;62113;45.624;11.700;2023-04-25T11:09:11;2.80;;;1.15;;
63012;SDS011;62113;45.624;11.700;2023-04-25T11:11:40;1.20;;;1.20;;
63012;SDS011;62113;45.624;11.700;2023-04-25T11:14:06;1.03;;;1.00;;
63012;SDS011;62113;45.624;11.700;2023-04-25T11:16:32;1.00;;;1.00;;
63012;SDS011;62113;45.624;11.700;2023-04-25T11:18:57;2.27;;;1.27;;
63012;SDS011;62113;45.624;11.700;2023-04-25T11:21:26;1.67;;;1.30;;
63012;SDS011;62113;45.624;11.700;2023-04-25T11:23:53;1.30;;;1.20;;
63012;SDS011;62113;45.624;11.700;2023-04-25T11:28:45;1.40;;;1.35;;
63012;SDS011;62113;45.624;11.700;2023-04-25T11:31:12;0.90;;;0.90;;
63012;SDS011;62113;45.624;11.700;2023-04-25T11:33:37;1.30;;;1.20;;
63012;SDS011;62113;45.624;11.700;2023-04-25T11:36:03;1.40;;;1.30;;
63012;SDS011;62113;45.624;11.700;2023-04-25T11:40:56;1.33;;;1.30;;
63012;SDS011;62113;45.624;11.700;2023-04-25T11:43:22;1.30;;;1.30;;
63012;SDS011;62113;45.624;11.700;2023-04-25T11:45:48;1.67;;;1.57;;
63012;SDS011;62113;45.624;11.700;2023-04-25T11:48:15;2.50;;;1.33;;
63012;SDS011;62113;45.624;11.700;2023-04-25T11:50:41;3.83;;;1.30;;
63012;SDS011;62113;45.624;11.700;2023-04-25T11:53:07;1.17;;;1.17;;
63012;SDS011;62113;45.624;11.700;2023-04-25T11:55:33;1.20;;;1.10;;
63012;SDS011;62113;45.624;11.700;2023-04-25T11:58:00;1.48;;;1.10;;
63012;SDS011;62113;45.624;11.700;2023-04-25T12:00:26;1.55;;;1.40;;
63012;SDS011;62113;45.624;11.700;2023-04-25T12:02:53;1.50;;;1.40;;
63012;SDS011;62113;45.624;11.700;2023-04-25T12:05:23;1.02;;;1.02;;
63012;SDS011;62113;45.624;11.700;2023-04-25T12:07:50;1.50;;;1.40;;
63012;SDS011;62113;45.624;11.700;2023-04-25T12:10:16;1.03;;;1.03;;
63012;SDS011;62113;45.624;11.700;2023-04-25T12:15:12;1.10;;;1.10;;
63012;SDS011;62113;45.624;11.700;2023-04-25T12:17:45;1.48;;;1.20;;
63012;SDS011;62113;45.624;11.700;2023-04-25T12:20:23;1.00;;;1.00;;
63012;SDS011;62113;45.624;11.700;2023-04-25T12:22:50;0.80;;;0.80;;
63012;SDS011;62113;45.624;11.700;2023-04-25T12:30:51;0.90;;;0.90;;
63012;SDS011;62113;45.624;11.700;2023-04-25T12:33:37;1.90;;;1.20;;
63012;SDS011;62113;45.624;11.700;2023-04-25T12:36:03;1.00;;;1.00;;
63012;SDS011;62113;45.624;11.700;2023-04-25T12:38:40;1.50;;;0.90;;
63012;SDS011;62113;45.624;11.700;2023-04-25T12:41:07;1.45;;;1.20;;
63012;SDS011;62113;45.624;11.700;2023-04-25T12:43:33;1.55;;;1.20;;
63012;SDS011;62113;45.624;11.700;2023-04-25T12:45:59;3.83;;;3.22;;
63012;SDS011;62113;45.624;11.700;2023-04-25T12:48:25;1.63;;;1.50;;
63012;SDS011;62113;45.624;11.700;2023-04-25T12:50:51;2.37;;;2.17;;
63012;SDS011;62113;45.624;11.700;2023-04-25T12:53:20;1.80;;;1.30;;
63012;SDS011;62113;45.624;11.700;2023-04-25T12:55:47;2.58;;;1.75;;
63012;SDS011;62113;45.624;11.700;2023-04-25T12:58:13;2.17;;;1.97;;
63012;SDS011;62113;45.624;11.700;2023-04-25T13:00:40;1.88;;;1.77;;
63012;SDS011;62113;45.624;11.700;2023-04-25T13:03:06;1.00;;;1.00;;
63012;SDS011;62113;45.624;11.700;2023-04-25T13:05:31;1.90;;;1.00;;
63012;SDS011;62113;45.624;11.700;2023-04-25T13:07:57;1.47;;;1.40;;
63012;SDS011;62113;45.624;11.700;2023-04-25T13:10:22;1.03;;;1.03;;
63012;SDS011;62113;45.624;11.700;2023-04-25T13:12:48;1.00;;;0.90;;
63012;SDS011;62113;45.624;11.700;2023-04-25T13:15:14;0.90;;;0.90;;
63012;SDS011;62113;45.624;11.700;2023-04-25T13:17:40;1.35;;;1.20;;
63012;SDS011;62113;45.624;11.700;2023-04-25T13:20:07;1.08;;;1.08;;
63012;SDS011;62113;45.624;11.700;2023-04-25T13:22:34;1.20;;;1.20;;
63012;SDS011;62113;45.624;11.700;2023-04-25T13:25:03;1.05;;;1.05;;
63012;SDS011;62113;45.624;11.700;2023-04-25T13:27:30;1.27;;;1.17;;
63012;SDS011;62113;45.624;11.700;2023-04-25T13:32:23;1.58;;;1.35;;
63012;SDS011;62113;45.624;11.700;2023-04-25T13:34:50;1.40;;;1.40;;
63012;SDS011;62113;45.624;11.700;2023-04-25T13:37:16;2.00;;;1.38;;
63012;SDS011;62113;45.624;11.700;2023-04-25T13:39:42;2.10;;;1.43;;
63012;SDS011;62113;45.624;11.700;2023-04-25T13:42:07;1.70;;;1.60;;
63012;SDS011;62113;45.624;11.700;2023-04-25T13:44:33;1.60;;;1.50;;
63012;SDS011;62113;45.624;11.700;2023-04-25T13:46:58;1.50;;;1.40;;
63012;SDS011;62113;45.624;11.700;2023-04-25T13:49:25;1.67;;;1.58;;
63012;SDS011;62113;45.624;11.700;2023-04-25T13:51:51;1.80;;;1.63;;
63012;SDS011;62113;45.624;11.700;2023-04-25T13:54:17;1.97;;;1.87;;
63012;SDS011;62113;45.624;11.700;2023-04-25T13:56:42;1.97;;;1.80;;
63012;SDS011;62113;45.624;11.700;2023-04-25T13:59:08;1.43;;;1.33;;
63012;SDS011;62113;45.624;11.700;2023-04-25T14:01:34;1.53;;;1.43;;
63012;SDS011;62113;45.624;11.700;2023-04-25T14:04:00;1.20;;;1.20;;
63012;SDS011;62113;45.624;11.700;2023-04-25T14:06:28;2.80;;;1.92;;
63012;SDS011;62113;45.624;11.700;2023-04-25T14:08:54;1.57;;;1.47;;
63012;SDS011;62113;45.624;11.700;2023-04-25T14:11:19;1.60;;;1.50;;
63012;SDS011;62113;45.624;11.700;2023-04-25T14:13:45;1.70;;;1.60;;
63012;SDS011;62113;45.624;11.700;2023-04-25T14:18:37;1.67;;;1.57;;
63012;SDS011;62113;45.624;11.700;2023-04-25T14:21:03;2.77;;;1.90;;
63012;SDS011;62113;45.624;11.700;2023-04-25T14:23:29;2.13;;;1.92;;
63012;SDS011;62113;45.624;11.700;2023-04-25T14:25:55;2.20;;;2.00;;
63012;SDS011;62113;45.624;11.700;2023-04-25T14:28:21;1.80;;;1.60;;
63012;SDS011;62113;45.624;11.700;2023-04-25T14:30:46;2.20;;;1.57;;
63012;SDS011;62113;45.624;11.700;2023-04-25T14:33:12;1.87;;;1.77;;
63012;SDS011;62113;45.624;11.700;2023-04-25T14:35:38;2.58;;;1.63;;
63012;SDS011;62113;45.624;11.700;2023-04-25T14:38:04;2.63;;;2.40;;
63012;SDS011;62113;45.624;11.700;2023-04-25T14:40:30;3.75;;;2.42;;
63012;SDS011;62113;45.624;11.700;2023-04-25T14:42:56;2.57;;;2.33;;
63012;SDS011;62113;45.624;11.700;2023-04-25T14:45:22;2.20;;;2.07;;
63012;SDS011;62113;45.624;11.700;2023-04-25T14:47:47;2.70;;;1.93;;
63012;SDS011;62113;45.624;11.700;2023-04-25T14:50:13;1.80;;;1.70;;
63012;SDS011;62113;45.624;11.700;2023-04-25T14:52:38;1.70;;;1.60;;
63012;SDS011;62113;45.624;11.700;2023-04-25T14:55:04;1.73;;;1.60;;
63012;SDS011;62113;45.624;11.700;2023-04-25T14:57:31;1.60;;;1.50;;
63012;SDS011;62113;45.624;11.700;2023-04-25T14:59:57;1.60;;;1.50;;
63012;SDS011;62113;45.624;11.700;2023-04-25T15:02:23;4.20;;;1.70;;
63012;SDS011;62113;45.624;11.700;2023-04-25T15:04:49;1.50;;;1.40;;
63012;SDS011;62113;45.624;11.700;2023-04-25T15:07:15;1.60;;;1.50;;
63012;SDS011;62113;45.624;11.700;2023-04-25T15:09:40;1.60;;;1.50;;
63012;SDS011;62113;45.624;11.700;2023-04-25T15:12:06;1.40;;;1.30;;
63012;SDS011;62113;45.624;11.700;2023-04-25T15:14:32;1.97;;;1.10;;
63012;SDS011;62113;45.624;11.700;2023-04-25T15:16:59;1.38;;;1.27;;